createdAt,value
2018-12-30T00:00:24.132Z,101449.52
2018-12-30T00:02:52.578Z,101435.03
2018-12-30T00:05:22.745Z,101439.38
2018-12-30T00:07:51.250Z,101436.78
2018-12-30T00:10:19.967Z,101447.56
2018-12-30T00:12:48.670Z,101451.81
2018-12-30T00:15:18.901Z,101445.53
2018-12-30T00:17:47.514Z,101445.58
2018-12-30T00:20:15.996Z,101451.47
2018-12-30T00:22:44.444Z,101447.21
2018-12-30T00:25:12.877Z,101464.25
2018-12-30T00:27:41.339Z,101460.78
2018-12-30T00:30:11.495Z,101465.03
2018-12-30T00:32:39.981Z,101465.03
2018-12-30T00:35:08.507Z,101470.36
2018-12-30T00:37:36.947Z,101482.38
2018-12-30T00:40:45.305Z,101485.36
2018-12-30T00:43:13.804Z,101485.31
2018-12-30T00:45:42.234Z,101488.27
2018-12-30T00:48:10.669Z,101496.31
2018-12-30T00:50:39.299Z,101501.13
2018-12-30T00:53:07.731Z,101504.92
2018-12-30T00:55:36.244Z,101501.02
2018-12-30T00:58:04.706Z,101516.07
2018-12-30T01:00:33.212Z,101521.70
2018-12-30T01:03:01.669Z,101512.69
2018-12-30T01:05:30.155Z,101517.45
2018-12-30T01:07:58.775Z,101523.34
2018-12-30T01:10:27.226Z,101536.70
2018-12-30T01:12:55.778Z,101541.01
2018-12-30T01:15:24.351Z,101541.01
2018-12-30T01:17:54.620Z,101552.10
2018-12-30T01:20:23.076Z,101556.81
2018-12-30T01:22:51.471Z,101571.36
2018-12-30T01:25:19.929Z,101567.46
2018-12-30T01:27:48.346Z,101581.55
2018-12-30T01:30:16.806Z,101598.20
2018-12-30T01:32:47.007Z,101607.27
2018-12-30T01:35:15.475Z,101594.45
2018-12-30T01:37:43.930Z,101630.00
2018-12-30T01:40:12.426Z,101635.24
2018-12-30T01:42:40.881Z,101658.75
2018-12-30T01:45:11.082Z,101674.46
2018-12-30T01:47:39.568Z,101664.06
2018-12-30T01:50:08.026Z,101672.08
2018-12-30T01:53:16.406Z,101672.90
2018-12-30T01:55:44.836Z,101688.97
2018-12-30T01:58:14.333Z,101720.05
2018-12-30T02:00:42.821Z,101703.41
2018-12-30T02:03:11.366Z,101716.59
2018-12-30T02:05:39.824Z,101728.98
2018-12-30T02:08:08.464Z,101752.80
2018-12-30T02:10:36.942Z,101736.07
2018-12-30T02:13:05.526Z,101750.90
2018-12-30T02:18:49.653Z,101761.83
2018-12-30T02:21:30.131Z,101762.22
2018-12-30T02:23:58.594Z,101762.22
2018-12-30T02:29:37.046Z,101789.70
2018-12-30T02:32:05.707Z,101789.70
2018-12-30T02:34:34.149Z,101791.34
2018-12-30T02:37:02.680Z,101800.42
2018-12-30T02:39:31.111Z,101795.10
2018-12-30T02:41:59.542Z,101801.55
2018-12-30T02:44:27.952Z,101809.70
2018-12-30T02:46:56.417Z,101821.56
2018-12-30T02:49:24.856Z,101831.45
2018-12-30T02:51:53.597Z,101824.27
2018-12-30T02:54:41.588Z,101829.91
2018-12-30T02:57:10.207Z,101829.91
2018-12-30T02:59:58.000Z,101847.83
2018-12-30T03:02:26.469Z,101854.02
2018-12-30T03:04:54.897Z,101854.02
2018-12-30T03:07:23.320Z,101859.67
2018-12-30T03:09:51.955Z,101859.67
2018-12-30T03:12:20.385Z,101888.26
2018-12-30T03:14:48.827Z,101873.29
2018-12-30T03:17:17.271Z,101873.29
2018-12-30T03:19:45.725Z,101867.37
2018-12-30T03:22:15.444Z,101879.41
2018-12-30T03:24:43.895Z,101883.06
2018-12-30T03:27:12.310Z,101885.47
2018-12-30T03:29:40.855Z,101885.47
2018-12-30T03:32:09.448Z,101898.34
2018-12-30T03:34:37.853Z,101896.25
2018-12-30T03:37:06.318Z,101883.45
2018-12-30T03:39:34.884Z,101899.67
2018-12-30T03:42:03.550Z,101907.30
2018-12-30T03:44:31.993Z,101909.80
2018-12-30T03:47:00.506Z,101915.39
2018-12-30T03:49:29.049Z,101916.20
2018-12-30T03:51:57.616Z,101934.98
2018-12-30T03:54:26.091Z,101922.66
2018-12-30T03:56:54.649Z,101929.71
2018-12-30T03:59:23.177Z,101930.53
2018-12-30T04:01:51.674Z,101938.61
2018-12-30T04:04:20.297Z,101954.81
2018-12-30T04:06:48.740Z,101954.81
2018-12-30T04:09:17.195Z,101954.41
2018-12-30T04:11:45.742Z,101952.74
2018-12-30T04:14:14.199Z,101959.20
2018-12-30T04:16:42.637Z,101964.66
2018-12-30T04:19:11.135Z,101981.63
2018-12-30T04:21:39.571Z,101979.55
2018-12-30T04:24:08.126Z,101967.41
2018-12-30T04:26:36.606Z,101967.41
2018-12-30T04:29:05.044Z,101984.09
2018-12-30T04:31:33.697Z,101985.00
2018-12-30T04:34:02.111Z,101979.94
2018-12-30T04:36:30.620Z,101991.05
2018-12-30T04:39:00.744Z,101994.88
2018-12-30T04:41:29.368Z,102007.62
2018-12-30T04:43:57.823Z,101996.98
2018-12-30T04:46:26.306Z,102016.17
2018-12-30T04:48:54.734Z,102025.04
2018-12-30T04:51:23.273Z,102020.70
2018-12-30T04:53:51.729Z,102017.74
2018-12-30T04:56:20.180Z,102025.27
2018-12-30T04:58:48.680Z,102025.27
2018-12-30T05:01:17.114Z,102042.72
2018-12-30T05:03:45.579Z,102059.00
2018-12-30T05:06:14.007Z,102053.56
2018-12-30T05:08:42.462Z,102061.44
2018-12-30T05:11:10.888Z,102067.09
2018-12-30T05:13:39.375Z,102076.05
2018-12-30T05:16:07.913Z,102087.81
2018-12-30T05:18:36.602Z,102087.81
2018-12-30T05:21:05.315Z,102091.19
2018-12-30T05:23:33.814Z,102109.25
2018-12-30T05:26:02.250Z,102120.77
2018-12-30T05:28:30.716Z,102111.49
2018-12-30T05:30:59.188Z,102119.02
2018-12-30T05:33:27.726Z,102119.02
2018-12-30T05:35:56.218Z,102126.50
2018-12-30T05:38:24.643Z,102131.65
2018-12-30T05:40:53.162Z,102129.97
2018-12-30T05:43:21.617Z,102130.78
2018-12-30T05:45:50.102Z,102130.78
2018-12-30T05:48:18.573Z,102123.62
2018-12-30T05:50:47.006Z,102137.55
2018-12-30T05:53:15.435Z,102137.58
2018-12-30T05:55:43.917Z,102142.98
2018-12-30T05:58:12.437Z,102148.66
2018-12-30T06:00:40.921Z,102142.42
2018-12-30T06:03:09.392Z,102149.53
2018-12-30T06:05:37.839Z,102147.94
2018-12-30T06:08:06.448Z,102156.05
2018-12-30T06:10:34.928Z,102159.31
2018-12-30T06:13:03.366Z,102169.89
2018-12-30T06:15:31.811Z,102169.89
2018-12-30T06:18:00.267Z,102188.11
2018-12-30T06:20:28.703Z,102186.62
2018-12-30T06:22:57.150Z,102186.62
2018-12-30T06:25:25.632Z,102179.19
2018-12-30T06:27:54.116Z,102199.54
2018-12-30T06:30:22.653Z,102200.78
2018-12-30T06:32:51.081Z,102196.08
2018-12-30T06:35:19.553Z,102213.02
2018-12-30T06:37:48.176Z,102215.91
2018-12-30T06:40:16.709Z,102217.83
2018-12-30T06:42:45.243Z,102219.58
2018-12-30T06:45:13.765Z,102220.55
2018-12-30T06:47:42.199Z,102229.06
2018-12-30T06:50:11.298Z,102228.06
2018-12-30T06:52:39.801Z,102228.56
2018-12-30T06:55:08.309Z,102221.29
2018-12-30T06:57:36.757Z,102230.62
2018-12-30T07:00:06.491Z,102223.72
2018-12-30T07:02:34.869Z,102229.39
2018-12-30T07:05:03.340Z,102237.63
2018-12-30T07:07:31.799Z,102237.63
2018-12-30T07:10:00.242Z,102242.78
2018-12-30T07:12:28.702Z,102228.58
2018-12-30T07:14:57.136Z,102242.34
2018-12-30T07:17:25.701Z,102243.36
2018-12-30T07:19:54.304Z,102253.53
2018-12-30T07:22:22.845Z,102258.41
2018-12-30T07:24:51.330Z,102260.00
2018-12-30T07:27:19.748Z,102261.06
2018-12-30T07:29:48.193Z,102270.36
2018-12-30T07:32:16.651Z,102270.36
2018-12-30T07:34:45.167Z,102266.52
2018-12-30T07:37:13.597Z,102282.04
2018-12-30T07:39:42.098Z,102275.08
2018-12-30T07:42:10.536Z,102280.96
2018-12-30T07:44:38.953Z,102273.19
2018-12-30T07:47:07.418Z,102284.60
2018-12-30T07:49:35.843Z,102278.81
2018-12-30T07:52:04.324Z,102278.81
2018-12-30T07:54:32.730Z,102288.58
2018-12-30T07:57:01.193Z,102301.97
2018-12-30T07:59:29.702Z,102301.97
2018-12-30T08:01:58.184Z,102303.82
2018-12-30T08:04:26.625Z,102299.31
2018-12-30T08:06:55.112Z,102299.95
2018-12-30T08:09:24.195Z,102298.30
2018-12-30T08:11:52.581Z,102298.27
2018-12-30T08:14:21.218Z,102298.27
2018-12-30T08:16:49.656Z,102314.83
2018-12-30T08:19:18.110Z,102311.06
2018-12-30T08:21:46.587Z,102314.83
2018-12-30T08:24:15.051Z,102309.23
2018-12-30T08:26:43.648Z,102309.23
2018-12-30T08:29:12.196Z,102309.20
2018-12-30T08:31:40.739Z,102304.09
2018-12-30T08:34:09.205Z,102298.00
2018-12-30T08:36:37.795Z,102309.44
2018-12-30T08:39:07.455Z,102309.78
2018-12-30T08:41:35.907Z,102307.19
2018-12-30T08:44:04.381Z,102307.19
2018-12-30T08:46:32.790Z,102308.27
2018-12-30T08:49:01.352Z,102316.58
2018-12-30T08:51:29.821Z,102316.58
2018-12-30T08:53:58.290Z,102322.64
2018-12-30T08:56:26.710Z,102330.22
2018-12-30T08:58:55.249Z,102330.22
2018-12-30T09:01:28.259Z,102328.53
2018-12-30T09:03:53.951Z,102323.25
2018-12-30T09:06:22.418Z,102331.19
2018-12-30T09:08:50.866Z,102337.38
2018-12-30T09:11:19.409Z,102337.38
2018-12-30T09:13:47.954Z,102337.95
2018-12-30T09:16:17.529Z,102338.89
2018-12-30T09:18:46.188Z,102341.08
2018-12-30T09:21:14.606Z,102342.42
2018-12-30T09:23:45.199Z,102337.09
2018-12-30T09:26:13.719Z,102337.09
2018-12-30T09:28:42.263Z,102324.12
2018-12-30T09:31:10.944Z,102332.93
2018-12-30T09:33:39.542Z,102331.98
2018-12-30T09:36:08.042Z,102331.98
2018-12-30T09:38:36.492Z,102331.11
2018-12-30T09:41:04.984Z,102327.91
2018-12-30T09:48:51.264Z,102337.17
2018-12-30T09:51:19.709Z,102337.17
2018-12-30T09:53:48.149Z,102341.86
2018-12-30T09:56:16.598Z,102341.86
2018-12-30T09:58:45.037Z,102337.45
2018-12-30T10:01:13.543Z,102343.61
2018-12-30T10:03:42.021Z,102330.96
2018-12-30T10:06:10.458Z,102339.33
2018-12-30T10:08:39.163Z,102328.33
2018-12-30T10:11:07.650Z,102332.70
2018-12-30T10:13:36.383Z,102354.27
2018-12-30T10:16:04.895Z,102354.27
2018-12-30T10:18:33.409Z,102353.33
2018-12-30T10:21:01.900Z,102361.17
2018-12-30T10:23:30.465Z,102367.67
2018-12-30T10:25:58.952Z,102373.83
2018-12-30T10:28:27.465Z,102369.58
2018-12-30T10:30:55.930Z,102369.58
2018-12-30T10:33:24.572Z,102366.01
2018-12-30T10:35:53.038Z,102366.01
2018-12-30T10:38:21.480Z,102358.25
2018-12-30T10:40:49.997Z,102363.03
2018-12-30T10:43:18.484Z,102362.01
2018-12-30T10:45:47.077Z,102362.01
2018-12-30T10:48:15.597Z,102360.38
2018-12-30T10:50:44.242Z,102349.60
2018-12-30T10:53:12.729Z,102343.57
2018-12-30T10:55:41.264Z,102342.88
2018-12-30T10:58:15.126Z,102341.98
2018-12-30T11:00:47.297Z,102352.37
2018-12-30T11:03:15.750Z,102364.26
2018-12-30T11:05:44.206Z,102353.98
2018-12-30T11:08:12.733Z,102340.75
2018-12-30T11:10:41.317Z,102343.00
2018-12-30T11:13:09.826Z,102348.45
2018-12-30T11:15:39.519Z,102338.53
2018-12-30T11:18:16.337Z,102339.66
2018-12-30T11:20:44.940Z,102341.43
2018-12-30T11:23:13.485Z,102331.56
2018-12-30T11:25:42.616Z,102338.69
2018-12-30T11:28:11.164Z,102338.69
2018-12-30T11:30:39.716Z,102340.97
2018-12-30T11:33:08.260Z,102350.78
2018-12-30T11:35:36.766Z,102351.82
2018-12-30T11:38:05.283Z,102342.63
2018-12-30T11:40:33.725Z,102359.87
2018-12-30T11:43:02.313Z,102340.97
2018-12-30T11:45:30.977Z,102337.55
2018-12-30T11:47:59.832Z,102345.77
2018-12-30T11:50:28.354Z,102338.55
2018-12-30T11:52:57.003Z,102345.59
2018-12-30T11:55:25.484Z,102340.06
2018-12-30T11:57:53.986Z,102336.77
2018-12-30T12:00:22.460Z,102338.37
2018-12-30T12:02:50.894Z,102336.30
2018-12-30T12:05:19.626Z,102333.83
2018-12-30T12:07:48.350Z,102340.80
2018-12-30T12:10:16.807Z,102347.49
2018-12-30T12:12:49.132Z,102357.62
2018-12-30T12:15:15.623Z,102352.94
2018-12-30T12:17:44.095Z,102358.71
2018-12-30T12:20:12.625Z,102348.97
2018-12-30T12:22:41.112Z,102352.62
2018-12-30T12:25:09.628Z,102354.31
2018-12-30T12:27:39.294Z,102353.05
2018-12-30T12:30:08.645Z,102352.86
2018-12-30T12:32:37.081Z,102356.38
2018-12-30T12:35:06.018Z,102358.31
2018-12-30T12:37:34.513Z,102350.38
2018-12-30T12:40:02.918Z,102346.80
2018-12-30T12:42:31.499Z,102356.02
2018-12-30T12:45:00.096Z,102361.39
2018-12-30T12:47:28.850Z,102360.58
2018-12-30T12:49:57.383Z,102373.63
2018-12-30T12:52:26.579Z,102373.63
2018-12-30T12:54:55.149Z,102373.77
2018-12-30T12:57:23.604Z,102378.38
2018-12-30T12:59:52.118Z,102388.63
2018-12-30T13:02:20.655Z,102388.28
2018-12-30T13:04:49.142Z,102384.28
2018-12-30T13:07:17.740Z,102384.28
2018-12-30T13:09:46.333Z,102391.79
2018-12-30T13:12:14.835Z,102391.97
2018-12-30T13:14:43.289Z,102397.56
2018-12-30T13:17:11.737Z,102397.56
2018-12-30T13:19:40.260Z,102395.81
2018-12-30T13:22:08.755Z,102395.34
2018-12-30T13:24:40.150Z,102389.26
2018-12-30T13:27:07.483Z,102401.35
2018-12-30T13:29:35.966Z,102394.47
2018-12-30T13:32:04.549Z,102404.38
2018-12-30T13:34:33.080Z,102402.63
2018-12-30T13:37:01.590Z,102403.51
2018-12-30T13:39:30.043Z,102398.06
2018-12-30T13:41:58.553Z,102397.91
2018-12-30T13:44:27.061Z,102396.13
2018-12-30T13:46:57.180Z,102397.33
2018-12-30T13:49:26.988Z,102383.88
2018-12-30T13:51:55.438Z,102382.19
2018-12-30T13:54:23.974Z,102395.50
2018-12-30T13:56:52.409Z,102390.13
2018-12-30T13:59:23.427Z,102392.20
2018-12-30T14:01:51.901Z,102389.89
2018-12-30T14:04:20.424Z,102383.48
2018-12-30T14:06:48.935Z,102380.66
2018-12-30T14:09:17.433Z,102381.85
2018-12-30T14:11:46.250Z,102397.66
2018-12-30T14:14:14.850Z,102396.45
2018-12-30T14:16:43.696Z,102386.34
2018-12-30T14:19:12.304Z,102389.55
2018-12-30T14:21:40.867Z,102378.59
2018-12-30T14:24:09.418Z,102372.97
2018-12-30T14:26:37.874Z,102374.25
2018-12-30T14:29:06.323Z,102379.41
2018-12-30T14:31:34.878Z,102383.88
2018-12-30T14:34:03.490Z,102374.59
2018-12-30T14:36:31.964Z,102369.63
2018-12-30T14:39:00.428Z,102369.06
2018-12-30T14:41:28.932Z,102375.87
2018-12-30T14:43:57.406Z,102362.75
2018-12-30T14:46:33.627Z,102370.75
2018-12-30T14:48:56.333Z,102375.22
2018-12-30T14:51:25.018Z,102367.16
2018-12-30T14:53:53.687Z,102379.39
2018-12-30T14:56:22.130Z,102379.39
2018-12-30T14:58:50.761Z,102383.00
2018-12-30T15:01:19.236Z,102395.41
2018-12-30T15:03:47.900Z,102395.41
2018-12-30T15:06:16.496Z,102394.12
2018-12-30T15:08:46.082Z,102403.82
2018-12-30T15:11:15.371Z,102407.67
2018-12-30T15:13:44.679Z,102415.92
2018-12-30T15:16:13.112Z,102422.39
2018-12-30T15:18:41.671Z,102413.92
2018-12-30T15:21:10.192Z,102413.92
2018-12-30T15:23:38.638Z,102416.05
2018-12-30T15:26:07.182Z,102426.42
2018-12-30T15:28:35.557Z,102426.42
2018-12-30T15:31:04.058Z,102428.11
2018-12-30T15:33:32.587Z,102427.98
2018-12-30T15:36:01.051Z,102440.39
2018-12-30T15:38:29.519Z,102440.42
2018-12-30T15:40:58.022Z,102455.23
2018-12-30T15:43:26.564Z,102440.08
2018-12-30T15:45:55.053Z,102459.08
2018-12-30T15:48:23.566Z,102459.05
2018-12-30T15:50:52.032Z,102449.70
2018-12-30T15:53:20.499Z,102453.52
2018-12-30T15:55:49.002Z,102444.95
2018-12-30T15:58:17.474Z,102440.27
2018-12-30T16:00:45.924Z,102448.52
2018-12-30T16:03:14.434Z,102459.65
2018-12-30T16:05:42.860Z,102456.37
2018-12-30T16:08:11.479Z,102447.55
2018-12-30T16:10:40.052Z,102446.77
2018-12-30T16:13:08.558Z,102440.36
2018-12-30T16:15:36.988Z,102458.56
2018-12-30T16:18:05.463Z,102454.05
2018-12-30T16:20:33.992Z,102450.27
2018-12-30T16:23:02.535Z,102440.33
2018-12-30T16:25:31.032Z,102459.65
2018-12-30T16:27:59.894Z,102447.80
2018-12-30T16:30:28.408Z,102447.80
2018-12-30T16:32:58.432Z,102445.55
2018-12-30T16:35:26.938Z,102444.73
2018-12-30T16:37:55.461Z,102451.71
2018-12-30T16:40:23.893Z,102460.02
2018-12-30T16:42:52.473Z,102460.02
2018-12-30T16:45:20.916Z,102461.02
2018-12-30T16:47:49.402Z,102461.02
2018-12-30T16:50:17.928Z,102455.56
2018-12-30T16:52:46.398Z,102463.99
2018-12-30T16:55:14.938Z,102470.78
2018-12-30T16:57:43.408Z,102474.63
2018-12-30T17:00:12.030Z,102478.40
2018-12-30T17:02:40.589Z,102478.94
2018-12-30T17:05:09.395Z,102472.37
2018-12-30T17:07:38.222Z,102475.09
2018-12-30T17:10:08.717Z,102472.84
2018-12-30T17:12:37.237Z,102476.72
2018-12-30T17:15:08.152Z,102491.04
2018-12-30T17:17:36.862Z,102486.27
2018-12-30T17:20:06.673Z,102486.27
2018-12-30T17:22:35.187Z,102480.44
2018-12-30T17:25:03.882Z,102485.28
2018-12-30T17:27:33.872Z,102488.31
2018-12-30T17:30:02.368Z,102486.97
2018-12-30T17:32:30.918Z,102493.91
2018-12-30T17:34:59.318Z,102481.55
2018-12-30T17:37:27.751Z,102492.20
2018-12-30T17:39:56.233Z,102491.90
2018-12-30T17:42:24.724Z,102500.77
2018-12-30T17:44:53.266Z,102504.45
2018-12-30T17:47:21.863Z,102508.05
2018-12-30T17:49:50.499Z,102509.03
2018-12-30T17:52:18.941Z,102502.83
2018-12-30T17:54:47.476Z,102514.80
2018-12-30T17:57:15.946Z,102516.48
2018-12-30T17:59:44.732Z,102506.03
2018-12-30T18:02:13.925Z,102521.81
2018-12-30T18:04:42.483Z,102524.34
2018-12-30T18:07:10.961Z,102529.56
2018-12-30T18:09:39.367Z,102525.73
2018-12-30T18:12:07.885Z,102529.16
2018-12-30T18:14:36.349Z,102537.56
2018-12-30T18:17:04.951Z,102540.83
2018-12-30T18:19:33.399Z,102540.83
2018-12-30T18:22:01.866Z,102534.83
2018-12-30T18:24:30.308Z,102535.81
2018-12-30T18:26:58.813Z,102535.81
2018-12-30T18:29:27.221Z,102539.72
2018-12-30T18:31:55.686Z,102528.59
2018-12-30T18:34:24.293Z,102532.13
2018-12-30T18:36:52.751Z,102525.55
2018-12-30T18:39:21.338Z,102532.44
2018-12-30T18:41:49.819Z,102529.09
2018-12-30T18:44:18.404Z,102534.42
2018-12-30T18:46:46.861Z,102529.77
2018-12-30T18:49:15.321Z,102532.56
2018-12-30T18:51:43.972Z,102532.56
2018-12-30T18:54:12.501Z,102536.41
2018-12-30T18:56:41.134Z,102536.41
2018-12-30T18:59:09.596Z,102533.45
2018-12-30T19:01:38.201Z,102533.34
2018-12-30T19:04:06.694Z,102533.34
2018-12-30T19:06:35.443Z,102531.89
2018-12-30T19:09:05.841Z,102528.96
2018-12-30T19:11:34.367Z,102525.25
2018-12-30T19:14:02.828Z,102528.83
2018-12-30T19:16:33.907Z,102512.65
2018-12-30T19:19:02.356Z,102512.65
2018-12-30T19:21:30.961Z,102502.44
2018-12-30T19:24:00.709Z,102502.80
2018-12-30T19:26:29.197Z,102508.43
2018-12-30T19:28:57.746Z,102503.61
2018-12-30T19:31:26.236Z,102508.53
2018-12-30T19:33:54.710Z,102513.77
2018-12-30T19:36:23.732Z,102513.86
2018-12-30T19:38:52.773Z,102508.30
2018-12-30T19:41:21.269Z,102502.91
2018-12-30T19:43:51.897Z,102515.34
2018-12-30T19:46:25.928Z,102515.84
2018-12-30T19:48:54.425Z,102518.28
2018-12-30T19:51:22.944Z,102510.59
2018-12-30T19:53:51.521Z,102498.89
2018-12-30T19:56:22.015Z,102498.02
2018-12-30T19:58:50.408Z,102499.36
2018-12-30T20:01:18.862Z,102500.64
2018-12-30T20:03:47.289Z,102506.27
2018-12-30T20:06:15.878Z,102512.20
2018-12-30T20:08:44.404Z,102511.90
2018-12-30T20:11:12.947Z,102515.64
2018-12-30T20:13:44.043Z,102509.74
2018-12-30T20:16:12.581Z,102509.91
2018-12-30T20:18:41.253Z,102490.94
2018-12-30T20:21:09.914Z,102501.66
2018-12-30T20:23:38.490Z,102505.80
2018-12-30T20:26:07.108Z,102500.03
2018-12-30T20:28:35.712Z,102509.70
2018-12-30T20:31:04.311Z,102486.59
2018-12-30T20:33:32.851Z,102486.59
2018-12-30T20:36:01.306Z,102483.19
2018-12-30T20:38:29.803Z,102486.73
2018-12-30T20:40:58.293Z,102483.66
2018-12-30T20:43:26.682Z,102503.34
2018-12-30T20:45:55.146Z,102506.50
2018-12-30T20:48:25.357Z,102509.56
2018-12-30T20:50:53.960Z,102507.78
2018-12-30T20:53:22.405Z,102509.09
2018-12-30T20:55:51.152Z,102504.45
2018-12-30T20:58:19.703Z,102509.88
2018-12-30T21:00:48.183Z,102508.08
2018-12-30T21:03:16.715Z,102513.78
2018-12-30T21:05:45.247Z,102507.98
2018-12-30T21:08:14.200Z,102496.09
2018-12-30T21:10:42.810Z,102496.09
2018-12-30T21:13:11.577Z,102497.64
2018-12-30T21:15:40.141Z,102497.64
2018-12-30T21:18:10.727Z,102495.75
2018-12-30T21:20:39.252Z,102503.34
2018-12-30T21:23:07.774Z,102500.27
2018-12-30T21:25:36.270Z,102490.36
2018-12-30T21:28:04.771Z,102499.50
2018-12-30T21:30:33.503Z,102497.41
2018-12-30T21:33:01.946Z,102491.44
2018-12-30T21:35:30.473Z,102491.55
2018-12-30T21:37:58.883Z,102487.60
2018-12-30T21:40:27.464Z,102486.96
2018-12-30T21:42:56.047Z,102499.80
2018-12-30T21:45:24.637Z,102494.23
2018-12-30T21:47:53.218Z,102494.23
2018-12-30T21:50:21.804Z,102494.55
2018-12-30T21:52:51.611Z,102495.19
2018-12-30T21:55:20.176Z,102495.19
2018-12-30T21:57:48.734Z,102505.63
2018-12-30T22:00:17.266Z,102510.89
2018-12-30T22:02:45.822Z,102509.17
2018-12-30T22:05:14.304Z,102501.79
2018-12-30T22:07:42.861Z,102497.31
2018-12-30T22:10:17.183Z,102505.47
2018-12-30T22:12:41.682Z,102498.99
2018-12-30T22:15:10.369Z,102505.09
2018-12-30T22:17:39.266Z,102520.12
2018-12-30T22:20:07.896Z,102516.62
2018-12-30T22:22:36.467Z,102516.62
2018-12-30T22:25:05.429Z,102518.91
2018-12-30T22:27:33.910Z,102511.80
2018-12-30T22:30:02.416Z,102504.28
2018-12-30T22:32:30.906Z,102505.40
2018-12-30T22:34:59.527Z,102502.23
2018-12-30T22:37:28.037Z,102497.74
2018-12-30T22:39:56.529Z,102497.74
2018-12-30T22:42:32.547Z,102501.02
2018-12-30T22:44:55.205Z,102500.04
2018-12-30T22:47:23.849Z,102497.00
2018-12-30T22:49:52.363Z,102501.92
2018-12-30T22:52:20.770Z,102503.61
2018-12-30T22:54:49.298Z,102503.58
2018-12-30T22:57:17.733Z,102495.59
2018-12-30T22:59:47.828Z,102501.28
2018-12-30T23:02:16.434Z,102496.16
2018-12-30T23:04:44.932Z,102496.50
2018-12-30T23:07:13.455Z,102499.62
2018-12-30T23:09:41.859Z,102491.47
2018-12-30T23:12:10.399Z,102497.95
2018-12-30T23:14:39.125Z,102500.03
2018-12-30T23:17:07.584Z,102500.03
2018-12-30T23:19:36.235Z,102506.95
2018-12-30T23:22:04.848Z,102495.89
2018-12-30T23:24:33.398Z,102504.92
2018-12-30T23:27:01.984Z,102502.39
2018-12-30T23:29:30.675Z,102502.83
2018-12-30T23:31:59.277Z,102506.54
2018-12-30T23:34:27.758Z,102510.05
2018-12-30T23:36:56.485Z,102503.58
2018-12-30T23:39:25.004Z,102500.36
2018-12-30T23:41:53.491Z,102500.36
2018-12-30T23:44:22.066Z,102495.95
2018-12-30T23:46:50.498Z,102493.55
2018-12-30T23:49:18.980Z,102493.28
2018-12-30T23:51:47.436Z,102501.84
2018-12-30T23:54:15.888Z,102504.03
2018-12-30T23:56:44.753Z,102499.84
2018-12-30T23:59:13.213Z,102495.98
